Hlavní strana
METAR-TAF:

METAR-TAF

Letiště :

Dare County Regional Airport

Manteo, Severní Karolína, Spojené státy americké

zeměpisná šířka: 35-55N, zeměpisná délka: 075-42W, výška: 4 m

Aktuální stav počasí

Zpráva byla vytvořena před 33 minutami, v 08:55 UTC
Západoseverozápadní vítr 4 kt
Teplota 21°C
Vlhkost vzduchu 83%
Tlak 1013 hPa
Viditelnost: 16.1 km
Jasno

METAR: KMQI 300855Z AUTO 30004KT 10SM CLR 21/18 A2992 RMK AO2 T02060181

Čas: 05:28 (09:28 UTC)


TAF: chybějící

Stav a předpovědi počasí z více než 4 000 letišť (zprávy METAR a TAF).

Červené a žluté tečky na mapě představují dostupné meteorologické stanice.

Když kurzor umístíte na tečku, zobrazí se název stanice.

Pak kliknutím zobrazíte stav a předpověď počasí.

Chcete-li změnit mapu, kliknutím na zelené tlačítko se znaménkem +mapu přiblížíte, kliknutím na zelené tlačítko se znaménkem – mapu oddálíte a kliknutím na zelené šipky přejdete na sousední mapy.


METAR-TAF: